createdAt,value
2018-12-21T00:02:27.990Z,100922.48
2018-12-21T00:04:57.989Z,100928.98
2018-12-21T00:07:28.007Z,100931.73
2018-12-21T00:09:58.048Z,100926.23
2018-12-21T00:12:28.056Z,100927.39
2018-12-21T00:14:58.091Z,100923.77
2018-12-21T00:17:34.530Z,100923.77
2018-12-21T00:20:01.262Z,100926.53
2018-12-21T00:22:31.445Z,100924.80
2018-12-21T00:25:01.456Z,100919.67
2018-12-21T00:27:31.482Z,100919.41
2018-12-21T00:30:01.502Z,100916.09
2018-12-21T00:32:36.817Z,100917.34
2018-12-21T00:35:12.180Z,100912.77
2018-12-21T00:37:47.261Z,100911.73
2018-12-21T00:40:22.407Z,100915.09
2018-12-21T00:42:56.574Z,100917.97
2018-12-21T00:45:30.729Z,100915.20
2018-12-21T00:48:00.956Z,100914.73
2018-12-21T00:50:30.983Z,100912.53
2018-12-21T00:53:01.020Z,100916.27
2018-12-21T00:55:31.134Z,100913.03
2018-12-21T00:58:01.149Z,100917.81
2018-12-21T01:00:31.217Z,100915.33
2018-12-21T01:03:01.283Z,100913.52
2018-12-21T01:05:31.440Z,100913.60
2018-12-21T01:08:01.492Z,100913.52
2018-12-21T01:10:31.705Z,100924.20
2018-12-21T01:13:01.811Z,100930.39
2018-12-21T01:15:31.833Z,100926.48
2018-12-21T01:18:01.996Z,100922.39
2018-12-21T01:20:32.044Z,100925.14
2018-12-21T01:23:02.162Z,100926.95
2018-12-21T01:25:32.225Z,100935.73
2018-12-21T01:28:02.241Z,100931.73
2018-12-21T01:30:32.425Z,100931.55
2018-12-21T01:33:02.497Z,100924.10
2018-12-21T01:35:32.559Z,100925.17
2018-12-21T01:38:02.565Z,100929.11
2018-12-21T01:40:32.620Z,100927.00
2018-12-21T01:43:02.647Z,100918.79
2018-12-21T01:45:32.676Z,100925.37
2018-12-21T01:48:02.692Z,100923.75
2018-12-21T01:50:32.738Z,100927.75
2018-12-21T01:53:02.760Z,100919.06
2018-12-21T01:55:32.800Z,100916.59
2018-12-21T01:58:02.844Z,100921.55
2018-12-21T02:00:32.926Z,100915.73
2018-12-21T02:03:02.978Z,100914.20
2018-12-21T02:05:32.989Z,100920.95
2018-12-21T02:08:03.014Z,100913.45
2018-12-21T02:10:33.041Z,100916.89
2018-12-21T02:13:03.189Z,100910.87
2018-12-21T02:15:33.226Z,100908.02
2018-12-21T02:18:03.570Z,100911.16
2018-12-21T02:20:33.588Z,100911.64
2018-12-21T02:23:03.602Z,100906.86
2018-12-21T02:25:33.617Z,100904.38
2018-12-21T02:28:03.698Z,100902.56
2018-12-21T02:30:33.730Z,100897.69
2018-12-21T02:33:03.779Z,100897.42
2018-12-21T02:35:33.829Z,100900.66
2018-12-21T02:38:03.938Z,100897.89
2018-12-21T02:40:33.988Z,100899.53
2018-12-21T02:43:04.006Z,100900.00
2018-12-21T02:45:34.073Z,100898.84
2018-12-21T02:48:04.105Z,100900.20
2018-12-21T02:50:34.150Z,100898.78
2018-12-21T02:53:04.180Z,100895.54
2018-12-21T02:55:34.220Z,100900.61
2018-12-21T02:58:04.236Z,100894.70
2018-12-21T03:00:34.315Z,100894.39
2018-12-21T03:03:04.467Z,100891.34
2018-12-21T03:05:34.542Z,100890.98
2018-12-21T03:08:04.627Z,100894.41
2018-12-21T03:10:35.337Z,100887.92
2018-12-21T03:13:05.348Z,100887.35
2018-12-21T03:15:35.380Z,100892.22
2018-12-21T03:18:05.494Z,100890.50
2018-12-21T03:20:35.585Z,100891.55
2018-12-21T03:23:05.785Z,100888.11
2018-12-21T03:25:35.828Z,100889.73
2018-12-21T03:28:06.320Z,100891.84
2018-12-21T03:30:36.359Z,100884.11
2018-12-21T03:33:06.436Z,100886.21
2018-12-21T03:35:36.482Z,100882.50
2018-12-21T03:38:06.518Z,100882.40
2018-12-21T03:40:36.666Z,100883.16
2018-12-21T03:43:06.798Z,100881.26
2018-12-21T03:45:37.021Z,100874.20
2018-12-21T03:48:07.086Z,100877.25
2018-12-21T03:50:37.138Z,100874.00
2018-12-21T03:53:07.165Z,100878.40
2018-12-21T03:55:37.239Z,100867.14
2018-12-21T03:58:07.287Z,100864.46
2018-12-21T04:00:38.310Z,100857.59
2018-12-21T04:03:08.335Z,100861.89
2018-12-21T04:05:38.360Z,100866.28
2018-12-21T04:08:08.374Z,100859.50
2018-12-21T04:10:38.392Z,100863.13
2018-12-21T04:13:08.405Z,100860.93
2018-12-21T04:15:39.345Z,100867.61
2018-12-21T04:18:09.441Z,100859.88
2018-12-21T04:20:39.432Z,100855.39
2018-12-21T04:23:09.470Z,100861.02
2018-12-21T04:25:39.471Z,100856.92
2018-12-21T04:28:09.505Z,100865.42
2018-12-21T04:30:39.537Z,100857.97
2018-12-21T04:33:09.621Z,100864.27
2018-12-21T04:35:39.706Z,100863.89
2018-12-21T04:38:09.814Z,100863.22
2018-12-21T04:40:40.097Z,100862.36
2018-12-21T04:43:10.121Z,100863.70
2018-12-21T04:45:40.253Z,100866.76
2018-12-21T04:48:10.304Z,100863.13
2018-12-21T04:50:40.321Z,100859.50
2018-12-21T04:53:10.365Z,100857.40
2018-12-21T04:55:40.394Z,100856.83
2018-12-21T04:58:10.484Z,100860.55
2018-12-21T05:00:40.532Z,100858.06
2018-12-21T05:03:10.547Z,100855.30
2018-12-21T05:05:40.573Z,100844.51
2018-12-21T05:08:10.582Z,100847.18
2018-12-21T05:10:40.623Z,100841.92
2018-12-21T05:13:10.714Z,100840.87
2018-12-21T05:15:40.723Z,100837.91
2018-12-21T05:18:10.760Z,100840.01
2018-12-21T05:20:40.825Z,100836.77
2018-12-21T05:23:10.980Z,100835.05
2018-12-21T05:25:41.099Z,100835.43
2018-12-21T05:28:11.151Z,100825.11
2018-12-21T05:30:41.184Z,100826.81
2018-12-21T05:33:11.214Z,100827.97
2018-12-21T05:35:41.264Z,100831.57
2018-12-21T05:38:11.368Z,100829.29
2018-12-21T05:40:41.393Z,100829.47
2018-12-21T05:43:11.414Z,100830.30
2018-12-21T05:45:41.528Z,100823.80
2018-12-21T05:48:11.681Z,100829.34
2018-12-21T05:50:41.779Z,100826.29
2018-12-21T05:53:11.859Z,100818.87
2018-12-21T05:55:41.941Z,100814.27
2018-12-21T05:58:12.032Z,100813.48
2018-12-21T06:00:42.125Z,100809.73
2018-12-21T06:03:12.367Z,100808.81
2018-12-21T06:05:42.487Z,100805.75
2018-12-21T06:08:12.559Z,100807.67
2018-12-21T06:10:42.737Z,100809.34
2018-12-21T06:13:12.822Z,100803.52
2018-12-21T06:15:43.980Z,100801.24
2018-12-21T06:18:14.100Z,100795.53
2018-12-21T06:20:44.205Z,100797.31
2018-12-21T06:23:14.334Z,100794.05
2018-12-21T06:25:44.431Z,100796.83
2018-12-21T06:28:14.534Z,100791.52
2018-12-21T06:30:44.794Z,100784.41
2018-12-21T06:33:14.825Z,100788.09
2018-12-21T06:35:44.944Z,100785.11
2018-12-21T06:38:14.973Z,100789.02
2018-12-21T06:40:45.053Z,100788.82
2018-12-21T06:43:15.084Z,100785.87
2018-12-21T06:45:45.188Z,100782.20
2018-12-21T06:48:15.248Z,100785.80
2018-12-21T06:50:45.369Z,100789.23
2018-12-21T06:53:18.124Z,100784.53
2018-12-21T06:55:47.476Z,100788.55
2018-12-21T06:58:17.528Z,100781.50
2018-12-21T07:00:47.597Z,100788.03
2018-12-21T07:03:17.619Z,100780.58
2018-12-21T07:05:47.697Z,100777.48
2018-12-21T07:08:17.723Z,100774.86
2018-12-21T07:10:47.816Z,100778.50
2018-12-21T07:13:17.972Z,100775.56
2018-12-21T07:15:48.033Z,100777.97
2018-12-21T07:18:18.075Z,100776.23
2018-12-21T07:20:48.143Z,100770.89
2018-12-21T07:23:26.901Z,100776.47
2018-12-21T07:25:50.257Z,100770.59
2018-12-21T07:28:20.279Z,100771.45
2018-12-21T07:30:50.301Z,100769.45
2018-12-21T07:33:20.383Z,100767.16
2018-12-21T07:35:50.392Z,100761.10
2018-12-21T07:38:20.458Z,100765.50
2018-12-21T07:40:50.577Z,100759.45
2018-12-21T07:43:20.694Z,100754.94
2018-12-21T07:45:50.773Z,100753.39
2018-12-21T07:48:20.819Z,100751.88
2018-12-21T07:50:51.038Z,100751.19
2018-12-21T07:53:21.084Z,100748.61
2018-12-21T07:55:51.127Z,100742.51
2018-12-21T07:58:21.219Z,100741.77
2018-12-21T08:00:51.321Z,100738.05
2018-12-21T08:03:21.527Z,100738.48
2018-12-21T08:05:51.575Z,100730.93
2018-12-21T08:08:21.577Z,100731.08
2018-12-21T08:10:51.610Z,100734.51
2018-12-21T08:13:21.653Z,100728.70
2018-12-21T08:15:51.750Z,100730.98
2018-12-21T08:18:22.009Z,100726.89
2018-12-21T08:20:52.017Z,100722.86
2018-12-21T08:23:22.093Z,100717.69
2018-12-21T08:25:52.109Z,100721.45
2018-12-21T08:28:22.185Z,100719.33
2018-12-21T08:30:52.210Z,100710.31
2018-12-21T08:33:22.316Z,100712.14
2018-12-21T08:35:52.403Z,100709.20
2018-12-21T08:38:22.550Z,100706.89
2018-12-21T08:40:52.573Z,100706.88
2018-12-21T08:43:22.749Z,100703.16
2018-12-21T08:45:52.777Z,100704.31
2018-12-21T08:48:22.855Z,100698.47
2018-12-21T08:50:52.905Z,100702.00
2018-12-21T08:53:23.073Z,100693.33
2018-12-21T08:55:53.134Z,100698.05
2018-12-21T08:58:23.206Z,100698.80
2018-12-21T09:00:53.280Z,100698.91
2018-12-21T09:03:23.341Z,100700.20
2018-12-21T09:05:53.358Z,100697.64
2018-12-21T09:08:23.385Z,100698.42
2018-12-21T09:10:53.423Z,100699.96
2018-12-21T09:13:23.587Z,100690.23
2018-12-21T09:15:53.636Z,100689.05
2018-12-21T09:18:23.741Z,100690.72
2018-12-21T09:20:53.770Z,100689.02
2018-12-21T09:23:23.855Z,100689.87
2018-12-21T09:25:53.870Z,100688.41
2018-12-21T09:28:23.983Z,100680.59
2018-12-21T09:30:54.016Z,100678.24
2018-12-21T09:33:24.149Z,100676.64
2018-12-21T09:35:54.225Z,100677.09
2018-12-21T09:38:24.395Z,100673.66
2018-12-21T09:40:54.590Z,100673.66
2018-12-21T09:43:24.641Z,100665.91
2018-12-21T09:45:54.718Z,100662.56
2018-12-21T09:48:24.740Z,100652.21
2018-12-21T09:50:54.907Z,100644.52
2018-12-21T09:53:24.944Z,100638.78
2018-12-21T09:55:55.053Z,100645.27
2018-12-21T09:58:25.081Z,100641.98
2018-12-21T10:00:56.168Z,100640.87
2018-12-21T10:03:26.186Z,100633.56
2018-12-21T10:05:56.199Z,100617.23
2018-12-21T10:08:26.265Z,100611.06
2018-12-21T10:10:56.331Z,100613.14
2018-12-21T10:13:26.385Z,100613.05
2018-12-21T10:15:56.493Z,100609.78
2018-12-21T10:18:26.586Z,100603.03
2018-12-21T10:20:56.585Z,100604.86
2018-12-21T10:23:26.621Z,100597.20
2018-12-21T10:25:56.759Z,100595.84
2018-12-21T10:28:26.786Z,100584.15
2018-12-21T10:30:56.991Z,100582.45
2018-12-21T10:33:27.206Z,100572.97
2018-12-21T10:35:57.262Z,100573.70
2018-12-21T10:38:27.393Z,100564.56
2018-12-21T10:40:57.420Z,100558.46
2018-12-21T10:43:33.269Z,100554.67
2018-12-21T10:46:03.313Z,100562.13
2018-12-21T10:48:37.350Z,100561.03
2018-12-21T10:51:05.474Z,100551.38
2018-12-21T10:53:35.567Z,100552.83
2018-12-21T10:56:05.618Z,100544.39
2018-12-21T10:58:35.652Z,100535.36
2018-12-21T11:01:05.706Z,100527.67
2018-12-21T11:03:35.715Z,100525.83
2018-12-21T11:06:05.801Z,100527.42
2018-12-21T11:08:35.827Z,100505.43
2018-12-21T11:11:05.970Z,100507.98
2018-12-21T11:13:35.985Z,100505.55
2018-12-21T11:16:06.101Z,100504.80
2018-12-21T11:18:36.168Z,100491.27
2018-12-21T11:21:06.429Z,100489.06
2018-12-21T11:23:37.586Z,100483.80
2018-12-21T11:26:07.673Z,100476.72
2018-12-21T11:28:37.729Z,100463.66
2018-12-21T11:31:07.746Z,100461.33
2018-12-21T11:33:37.898Z,100456.89
2018-12-21T11:36:09.568Z,100443.98
2018-12-21T11:38:39.642Z,100433.83
2018-12-21T11:41:09.690Z,100429.16
2018-12-21T11:43:40.312Z,100429.37
2018-12-21T11:46:10.370Z,100423.34
2018-12-21T11:48:41.390Z,100415.73
2018-12-21T11:51:11.442Z,100411.59
2018-12-21T11:53:43.201Z,100406.95
2018-12-21T11:56:13.295Z,100404.47
2018-12-21T11:58:43.342Z,100397.20
2018-12-21T12:01:13.377Z,100390.97
2018-12-21T12:03:43.430Z,100393.63
2018-12-21T12:06:13.517Z,100384.80
2018-12-21T12:08:43.539Z,100382.94
2018-12-21T12:11:13.563Z,100384.92
2018-12-21T12:13:43.599Z,100384.22
2018-12-21T12:16:13.739Z,100378.25
2018-12-21T12:18:43.756Z,100378.73
2018-12-21T12:21:13.853Z,100371.44
2018-12-21T12:23:43.865Z,100378.20
2018-12-21T12:26:13.951Z,100378.81
2018-12-21T12:28:44.026Z,100369.41
2018-12-21T12:31:14.116Z,100363.02
2018-12-21T12:33:44.162Z,100354.91
2018-12-21T12:36:14.243Z,100350.75
2018-12-21T12:38:44.256Z,100340.83
2018-12-21T12:41:14.315Z,100329.32
2018-12-21T12:43:44.421Z,100324.36
2018-12-21T12:46:14.468Z,100317.56
2018-12-21T12:48:44.505Z,100319.80
2018-12-21T12:51:14.548Z,100316.48
2018-12-21T12:53:44.649Z,100308.90
2018-12-21T12:56:14.806Z,100301.52
2018-12-21T12:58:44.961Z,100303.67
2018-12-21T13:01:15.014Z,100298.19
2018-12-21T13:03:45.144Z,100291.31
2018-12-21T13:06:15.175Z,100288.20
2018-12-21T13:08:52.329Z,100284.11
2018-12-21T13:11:22.393Z,100280.64
2018-12-21T13:13:52.490Z,100274.15
2018-12-21T13:16:22.541Z,100277.13
2018-12-21T13:18:52.613Z,100270.54
2018-12-21T13:21:22.653Z,100265.78
2018-12-21T13:23:52.813Z,100265.45
2018-12-21T13:26:22.872Z,100247.96
2018-12-21T13:28:52.915Z,100253.27
2018-12-21T13:31:23.029Z,100252.41
2018-12-21T13:33:53.079Z,100261.22
2018-12-21T13:36:23.187Z,100254.77
2018-12-21T13:38:53.237Z,100260.16
2018-12-21T13:41:23.340Z,100253.22
2018-12-21T13:43:53.411Z,100245.88
2018-12-21T13:46:23.473Z,100244.28
2018-12-21T13:48:53.523Z,100232.19
2018-12-21T13:51:23.540Z,100230.72
2018-12-21T13:53:53.554Z,100230.13
2018-12-21T13:56:24.881Z,100224.88
2018-12-21T13:58:54.917Z,100219.18
2018-12-21T14:01:24.954Z,100205.55
2018-12-21T14:03:55.014Z,100199.92
2018-12-21T14:06:25.628Z,100193.44
2018-12-21T14:08:55.681Z,100185.97
2018-12-21T14:11:25.740Z,100180.75
2018-12-21T14:13:55.748Z,100175.91
2018-12-21T14:16:25.812Z,100172.86
2018-12-21T14:18:55.823Z,100181.51
2018-12-21T14:21:25.875Z,100171.23
2018-12-21T14:23:56.063Z,100164.64
2018-12-21T14:26:26.101Z,100165.03
2018-12-21T14:28:56.135Z,100153.44
2018-12-21T14:31:26.250Z,100155.51
2018-12-21T14:33:56.281Z,100143.20
2018-12-21T14:36:26.314Z,100142.24
2018-12-21T14:39:02.555Z,100136.97
2018-12-21T14:41:35.829Z,100120.47
2018-12-21T14:44:10.389Z,100129.41
2018-12-21T14:46:40.764Z,100116.73
2018-12-21T14:49:10.848Z,100115.75
2018-12-21T14:51:41.947Z,100114.77
2018-12-21T14:54:14.451Z,100117.36
2018-12-21T14:56:44.686Z,100117.27
2018-12-21T14:59:23.112Z,100107.38
2018-12-21T15:01:53.337Z,100109.37
2018-12-21T15:04:23.371Z,100103.77
2018-12-21T15:06:53.457Z,100105.60
2018-12-21T15:09:23.549Z,100100.59
2018-12-21T15:11:53.613Z,100099.64
2018-12-21T15:14:23.651Z,100088.45
2018-12-21T15:16:53.673Z,100085.80
2018-12-21T15:19:23.719Z,100080.17
2018-12-21T15:21:53.801Z,100074.37
2018-12-21T15:24:23.861Z,100066.32
2018-12-21T15:26:53.910Z,100058.04
2018-12-21T15:29:23.954Z,100057.34
2018-12-21T15:31:53.987Z,100056.23
2018-12-21T15:34:24.000Z,100044.33
2018-12-21T15:36:54.284Z,100040.30
2018-12-21T15:39:24.412Z,100043.94
2018-12-21T15:41:54.486Z,100031.40
2018-12-21T15:44:24.518Z,100029.92
2018-12-21T15:46:54.548Z,100033.82
2018-12-21T15:49:24.551Z,100027.84
2018-12-21T15:51:54.666Z,100023.71
2018-12-21T15:54:24.778Z,100017.89
2018-12-21T15:56:54.860Z,100015.62
2018-12-21T15:59:25.040Z,100008.91
2018-12-21T16:01:55.056Z,99997.67
2018-12-21T16:04:25.060Z,99995.11
2018-12-21T16:06:55.126Z,99993.19
2018-12-21T16:09:25.241Z,99977.09
2018-12-21T16:11:55.232Z,99979.91
2018-12-21T16:14:34.037Z,99975.52
2018-12-21T16:16:57.399Z,99967.89
2018-12-21T16:19:27.400Z,99964.10
2018-12-21T16:21:57.424Z,99960.18
2018-12-21T16:24:27.433Z,99947.75
2018-12-21T16:26:57.499Z,99949.98
2018-12-21T16:29:27.513Z,99943.70
2018-12-21T16:31:57.594Z,99931.50
2018-12-21T16:34:27.600Z,99923.42
2018-12-21T16:36:57.637Z,99906.97
2018-12-21T16:39:27.966Z,99903.22
2018-12-21T16:41:58.017Z,99903.70
2018-12-21T16:44:28.079Z,99892.84
2018-12-21T16:46:58.172Z,99892.88
2018-12-21T16:49:28.202Z,99895.04
2018-12-21T16:51:58.434Z,99892.39
2018-12-21T16:54:28.415Z,99880.81
2018-12-21T16:56:58.461Z,99874.96
2018-12-21T16:59:28.470Z,99870.23
2018-12-21T17:01:58.518Z,99863.52
2018-12-21T17:04:28.589Z,99853.55
2018-12-21T17:06:58.615Z,99845.11
2018-12-21T17:09:28.645Z,99840.02
2018-12-21T17:11:58.713Z,99842.92
2018-12-21T17:14:28.829Z,99830.86
2018-12-21T17:16:58.876Z,99822.23
2018-12-21T17:19:28.895Z,99821.02
2018-12-21T17:21:58.974Z,99821.25
2018-12-21T17:24:28.990Z,99802.75
2018-12-21T17:26:59.073Z,99800.69
2018-12-21T17:29:29.133Z,99780.86
2018-12-21T17:31:59.156Z,99768.88
2018-12-21T17:34:29.272Z,99759.86
2018-12-21T17:36:59.399Z,99750.16
2018-12-21T17:39:29.432Z,99747.66
2018-12-21T17:41:59.530Z,99746.41
2018-12-21T17:44:29.734Z,99741.98
2018-12-21T17:46:59.784Z,99726.80
2018-12-21T17:49:29.911Z,99728.09
2018-12-21T17:52:01.470Z,99734.87
2018-12-21T17:54:31.993Z,99728.41
2018-12-21T17:57:03.089Z,99724.88
2018-12-21T17:59:33.076Z,99718.08
2018-12-21T18:02:03.136Z,99715.45
2018-12-21T18:04:33.219Z,99714.83
2018-12-21T18:07:03.309Z,99709.11
2018-12-21T18:09:35.538Z,99691.33
2018-12-21T18:12:06.236Z,99700.22
2018-12-21T18:14:36.301Z,99683.20
2018-12-21T18:17:06.852Z,99688.29
2018-12-21T18:19:37.023Z,99674.67
2018-12-21T18:22:14.290Z,99677.70
2018-12-21T18:24:45.293Z,99667.47
2018-12-21T18:27:16.886Z,99662.83
2018-12-21T18:29:47.058Z,99658.89
2018-12-21T18:32:50.411Z,99647.81
2018-12-21T18:35:20.759Z,99642.73
2018-12-21T18:37:57.196Z,99632.58
2018-12-21T18:40:27.910Z,99629.41
2018-12-21T18:42:58.998Z,99631.38
2018-12-21T18:45:29.104Z,99622.22
2018-12-21T18:47:59.228Z,99607.05
2018-12-21T18:50:30.299Z,99610.23
2018-12-21T18:53:00.403Z,99604.73
2018-12-21T18:55:30.409Z,99595.63
2018-12-21T18:58:00.437Z,99591.47
2018-12-21T19:00:30.512Z,99582.58
2018-12-21T19:03:00.561Z,99580.53
2018-12-21T19:05:30.598Z,99577.22
2018-12-21T19:08:00.638Z,99564.81
2018-12-21T19:10:30.757Z,99573.63
2018-12-21T19:13:00.789Z,99568.90
2018-12-21T19:15:30.817Z,99559.73
2018-12-21T19:18:00.838Z,99566.63
2018-12-21T19:20:30.871Z,99552.52
2018-12-21T19:23:00.909Z,99551.59
2018-12-21T19:25:30.917Z,99539.25
2018-12-21T19:28:00.952Z,99530.72
2018-12-21T19:30:31.052Z,99530.08
2018-12-21T19:33:01.081Z,99521.41
2018-12-21T19:35:31.482Z,99519.58
2018-12-21T19:38:01.637Z,99515.06
2018-12-21T19:40:31.717Z,99511.89
2018-12-21T19:43:01.733Z,99501.38
2018-12-21T19:45:31.908Z,99497.92
2018-12-21T19:48:01.938Z,99483.42
2018-12-21T19:50:32.124Z,99486.14
2018-12-21T19:53:02.655Z,99479.23
2018-12-21T19:55:46.532Z,99470.56
2018-12-21T19:58:16.600Z,99464.07
2018-12-21T20:00:46.600Z,99465.77
2018-12-21T20:03:16.676Z,99461.74
2018-12-21T20:05:46.745Z,99457.80
2018-12-21T20:08:16.782Z,99449.40
2018-12-21T20:10:46.806Z,99444.67
2018-12-21T20:13:16.839Z,99444.25
2018-12-21T20:15:46.934Z,99436.77
2018-12-21T20:18:18.295Z,99434.59
2018-12-21T20:20:48.344Z,99430.49
2018-12-21T20:23:18.456Z,99431.27
2018-12-21T20:25:48.475Z,99423.86
2018-12-21T20:28:18.607Z,99413.42
2018-12-21T20:30:48.713Z,99416.95
2018-12-21T20:33:18.778Z,99409.47
2018-12-21T20:35:48.846Z,99413.41
2018-12-21T20:38:21.538Z,99407.05
2018-12-21T20:40:51.127Z,99406.06
2018-12-21T20:43:21.154Z,99390.89
2018-12-21T20:45:51.196Z,99388.77
2018-12-21T20:48:21.278Z,99384.95
2018-12-21T20:50:51.293Z,99391.71
2018-12-21T20:53:21.372Z,99395.38
2018-12-21T20:55:51.403Z,99391.71
2018-12-21T20:58:57.091Z,99391.42
2018-12-21T21:01:27.168Z,99388.04
2018-12-21T21:03:57.726Z,99388.80
2018-12-21T21:06:27.921Z,99389.06
2018-12-21T21:08:57.940Z,99385.67
2018-12-21T21:11:31.725Z,99384.63
2018-12-21T21:14:01.822Z,99380.52
2018-12-21T21:16:40.878Z,99376.84
2018-12-21T21:19:11.683Z,99375.77
2018-12-21T21:21:42.329Z,99373.68
2018-12-21T21:24:13.940Z,99372.34
2018-12-21T21:26:44.091Z,99372.55
2018-12-21T21:29:15.244Z,99365.19
2018-12-21T21:31:47.245Z,99363.25
2018-12-21T21:34:18.329Z,99355.31
2018-12-21T21:36:48.578Z,99347.11
2018-12-21T21:39:18.627Z,99350.98
2018-12-21T21:41:49.795Z,99347.75
2018-12-21T21:44:19.990Z,99347.11
2018-12-21T21:46:50.061Z,99347.66
2018-12-21T21:49:20.109Z,99340.30
2018-12-21T21:51:50.180Z,99339.47
2018-12-21T21:54:20.263Z,99330.77
2018-12-21T21:56:50.313Z,99336.68
2018-12-21T21:59:20.401Z,99330.60
2018-12-21T22:01:50.426Z,99321.83
2018-12-21T22:04:20.520Z,99329.08
2018-12-21T22:06:50.557Z,99327.23
2018-12-21T22:09:20.630Z,99324.75
2018-12-21T22:11:50.660Z,99316.73
2018-12-21T22:14:20.719Z,99313.55
2018-12-21T22:16:50.780Z,99305.88
2018-12-21T22:19:20.888Z,99316.81
2018-12-21T22:21:51.125Z,99303.76
2018-12-21T22:24:21.295Z,99311.36
2018-12-21T22:26:51.396Z,99308.48
2018-12-21T22:29:21.441Z,99305.83
2018-12-21T22:31:51.461Z,99303.33
2018-12-21T22:34:21.506Z,99303.98
2018-12-21T22:36:51.572Z,99307.20
2018-12-21T22:39:21.593Z,99306.31
2018-12-21T22:41:51.609Z,99296.55
2018-12-21T22:44:21.652Z,99300.24
2018-12-21T22:46:51.657Z,99298.05
2018-12-21T22:49:21.684Z,99302.05
2018-12-21T22:51:51.701Z,99301.14
2018-12-21T22:54:21.769Z,99307.55
2018-12-21T22:56:51.780Z,99306.02
2018-12-21T22:59:21.924Z,99301.97
2018-12-21T23:01:52.674Z,99302.81
2018-12-21T23:04:23.398Z,99296.91
2018-12-21T23:06:53.434Z,99291.50
2018-12-21T23:09:23.497Z,99295.88
2018-12-21T23:11:53.566Z,99293.68
2018-12-21T23:14:23.585Z,99289.18
2018-12-21T23:16:53.601Z,99285.03
2018-12-21T23:19:30.060Z,99283.61
2018-12-21T23:22:00.077Z,99280.34
2018-12-21T23:24:30.096Z,99279.39
2018-12-21T23:27:00.162Z,99278.62
2018-12-21T23:29:30.150Z,99274.30
2018-12-21T23:32:00.222Z,99277.37
2018-12-21T23:34:30.253Z,99268.54
2018-12-21T23:37:00.269Z,99262.69
2018-12-21T23:39:30.281Z,99265.21
2018-12-21T23:42:00.303Z,99263.58
2018-12-21T23:44:30.301Z,99255.16
2018-12-21T23:47:00.456Z,99260.02
2018-12-21T23:49:30.558Z,99259.03
2018-12-21T23:52:00.556Z,99258.88
2018-12-21T23:54:30.565Z,99249.62
2018-12-21T23:57:00.569Z,99254.52
2018-12-21T23:59:30.604Z,99254.52
